Mid Missouri, Missouri
Current Conditions -  °F | °C
As of 7:54 PM on Friday 19 Dec 2014 (Local Time) from KCOU Reporting Station
Overcast Overcast  
Wind Chill: 29°   Ceiling: 1200
Heat Index: 35°   Visibility: 7mi
Dew Point: 32°   Wind: 7mph
Humidity: 89%   Direction: 120°ESE
Pressure: 30.22"   Gusts: NA
Location:  39.02°N, 92.25°W
Report Text: KCOU 200154Z 12006KT 7SM OVC012 02/00 A3022 RMK AO2 SLP242 T00170000
Loading
Personal Weather Stations






























Interactive Weather Map New forecast layout! Learn more

10-Day Weather Forecast

Advertisements
Track Severe Weather on mobile